logo
App data

BookWorm Adventures Volume 2

Store | Hub | SteamDB
Developer: PopCap Games, Inc. Publisher: PopCap Games, Inc.
Genre: Casual
Languages: English
Tags: Casual (28), Word Game (12), Puzzle (11)
Category: Single-player
Release date: Jul 30, 2009
Price: $4.99
Metascore: 79%
Owners: 20,000 .. 50,000
Followers: 104
Peak concurrent players yesterday: 4
Playtime total: 03:04 (average) 03:04 (median)

Steam Spy is still in beta, so expect major bugs.

Owners data:

Access restricted.

This feature is only available to users with special access rights. Sorry.

If you want to proceed, you need to register or log in first and then back Steam Spy on Patreon. Look for Indie or Pro pledge.

Don't forget to use the same email as on Steam Spy!

Audience in 2 weeks:

Access restricted.

This feature is only available to users with special access rights. Sorry.

If you want to proceed, you need to register or log in first and then back Steam Spy on Patreon. Look for Indie or Pro pledge.

Don't forget to use the same email as on Steam Spy!

Peak daily concurrent players:

CCU data courtesy of SteamDB. Used with permission.

Hourly concurrent players:

Daily Twitch stats:

Hourly Twitch stats:

YouTube:

The views data is based on top 50 videos uploaded last week. Actual number of views might be more than the number shown.

The displayed number of videos uploaded yesterday is limited to 50, so if there were more videos uploaded, the number will still show 50.

If the game has commonly used word as its name (like "FEAR" or "Volume") its number of Youtube views might be wrong.

Games similar to this one:

# Game Release date
Price
Score rank
(Userscore / Metascore)
Owners
Players
Playtime (Median)
1 Pajama Sam: Games to Play on Any Day Oct 23, 2014 $4.99N/A (N/A)20,000 .. 50,0000%00:00 (00:00)
2 Midnight Mysteries 4: Haunted Houdini Mar 28, 2012 $9.99N/A (N/A)50,000 .. 100,0000%00:00 (00:00)
3 Peggle Nights Oct 15, 2008 $4.9990% (94%/76%)50,000 .. 100,0000%00:00 (00:00)
4 Bigscreen Beta Apr 28, 2016 Free87% (93%)200,000 .. 500,0002.6%01:04 (01:10)
5 Hidden Object Bundle 4 in 1 Jun 1, 2014 $7.9987% (93%)20,000 .. 50,0000%00:00 (00:00)
6 YOU DON’T KNOW JACK Feb 8, 2011 N/A83% (92%/71%)0 .. 20,0000%00:00 (00:00)
7 Farm Frenzy Feb 15, 2010 $4.99N/A (N/A)0 .. 20,0000%00:00 (00:00)
8 Dynomite Deluxe Aug 30, 2006 $4.99N/A (N/A)20,000 .. 50,0008.33%00:47 (00:15)
9 Zuma Deluxe Aug 30, 2006 $4.9979% (91%)50,000 .. 100,0000%00:00 (00:00)
10 Soda Drinker Pro Apr 13, 2016 $4.9979% (91%)0 .. 20,0000%00:00 (00:00)
11 Action Henk May 11, 2015 $14.9976% (90%/74%)100,000 .. 200,0001.63%02:27 (01:44)
12 Big Money! Deluxe Aug 30, 2006 $4.99N/A (N/A)20,000 .. 50,0000%00:00 (00:00)
13 Midnight Mysteries 3: Devil on the Mississippi Mar 28, 2012 $9.9973% (89%)0 .. 20,0000%00:00 (00:00)
14 Startopia Oct 10, 2013 $6.9973% (89%/86%)100,000 .. 200,0000%00:00 (00:00)
15 Tropico Reloaded Jul 26, 2009 $6.9973% (89%)200,000 .. 500,0000%00:00 (00:00)
16 Sid Meier's Covert Action (Classic) Jan 1, 1990 $6.9973% (89%)20,000 .. 50,0000%00:00 (00:00)
17 Luxor 3 Jun 10, 2008 $9.9970% (88%)20,000 .. 50,0000%00:00 (00:00)
18 Carmageddon 2: Carpocalypse Now Sep 19, 2014 $9.9970% (88%)50,000 .. 100,0000%00:00 (00:00)
19 Shufflepuck Cantina Deluxe Dec 6, 2013 $9.9970% (88%)50,000 .. 100,0000.19%00:06 (00:02)
20 Lunar Flight Apr 10, 2012 $14.9968% (87%)20,000 .. 50,0001.22%00:26 (00:08)
21 Puzzler World May 28, 2010 $4.9968% (87%)50,000 .. 100,0000%00:00 (00:00)
22 Super Laser Racer Feb 18, 2010 $4.9968% (87%)20,000 .. 50,0000%00:00 (00:00)
23 Trainz Trouble Aug 26, 2014 $4.99N/A (N/A)0 .. 20,0000%00:00 (00:00)
24 WolfQuest Nov 17, 2015 $9.9965% (86%)20,000 .. 50,00020%03:39 (02:26)
25 Apollo 11 VR Apr 1, 2016 $9.6965% (86%)20,000 .. 50,0000%00:00 (00:00)
26 Plant Tycoon May 12, 2008 $9.99N/A (N/A)0 .. 20,0000%00:00 (00:00)
27 Among the Heavens Nov 6, 2015 $2.9965% (86%)50,000 .. 100,0000%00:00 (00:00)
28 SimpleRockets Jun 3, 2015 $7.9962% (85%)20,000 .. 50,0000%00:00 (00:00)
29 Making History: The Calm and the Storm Gold Edition May 19, 2015 $4.9962% (85%)0 .. 20,0000%00:00 (00:00)
30 Yosumin! May 26, 2009 $5.9960% (84%)100,000 .. 200,0000%00:00 (00:00)
31 Little Racers STREET Feb 6, 2014 $5.9957% (83%/62%)20,000 .. 50,0001.15%00:34 (00:22)
32 LUXOR: Mah Jong Jul 13, 2009 $9.99N/A (N/A)20,000 .. 50,0000%00:00 (00:00)
33 Brink of Consciousness: The Lonely Hearts Murders Nov 24, 2014 $9.9957% (83%)0 .. 20,0000%00:00 (00:00)
34 7 Wonders II Jun 10, 2008 $9.9957% (83%)20,000 .. 50,0000%00:00 (00:00)
35 Virtual Villagers - The Secret City May 28, 2008 $9.99N/A (N/A)0 .. 20,0000%00:00 (00:00)
36 BasketBelle Dec 9, 2014 $4.9955% (82%)0 .. 20,0000%00:00 (00:00)
37 The Next Penelope May 29, 2015 $12.9952% (81%/82%)20,000 .. 50,0000%00:00 (00:00)
38 Pat & Mat Nov 5, 2010 $6.9952% (81%)20,000 .. 50,0000%00:00 (00:00)
39 Crash Dive Jul 6, 2015 $6.9952% (81%)0 .. 20,0000%00:00 (00:00)
40 My Riding Stables: Life with Horses Mar 27, 2014 $9.9952% (81%)0 .. 20,0000%00:00 (00:00)
41 Rotastic Oct 11, 2012 $9.99N/A (N/A)0 .. 20,0000%00:00 (00:00)
42 Chris Sawyer's Locomotion Mar 17, 2015 $5.9948% (79%)20,000 .. 50,0000%00:00 (00:00)
43 Buzz Aldrin's Space Program Manager Oct 31, 2014 $29.9946% (78%/62%)0 .. 20,0000%00:00 (00:00)
44 Qvadriga Jun 13, 2014 $19.9946% (78%/72%)20,000 .. 50,0000%00:00 (00:00)
45 LUMINES Apr 18, 2008 $9.99N/A (N/A/74%)20,000 .. 50,0000%00:00 (00:00)
46 Dokuro Dec 8, 2014 $9.99N/A (N/A)0 .. 20,0000%00:00 (00:00)
47 The Happy Hereafter Jun 5, 2014 $3.9944% (77%)0 .. 20,0000%00:00 (00:00)
48 Virtual Villagers: The Lost Children May 12, 2008 $9.99N/A (N/A)0 .. 20,0000%00:00 (00:00)
49 Cooking Dash Aug 12, 2009 $9.99N/A (N/A)0 .. 20,0000%00:00 (00:00)
50 Elementary My Dear Majesty! Apr 16, 2015 $0.9941% (75%)20,000 .. 50,0000%00:00 (00:00)
51 0RBITALIS May 28, 2015 $9.9939% (74%/73%)20,000 .. 50,0002.78%00:01 (00:00)
52 Toilet Tycoon Mar 1, 2000 $4.9939% (74%)0 .. 20,0000%00:00 (00:00)
53 Home Design 3D Jan 30, 2015 $9.9937% (73%)20,000 .. 50,0000%00:00 (00:00)
54 Train Town Aug 26, 2014 $2.9937% (73%)0 .. 20,0000%00:00 (00:00)
55 Ski Region Simulator - Gold Edition Jan 31, 2014 $9.9937% (73%)20,000 .. 50,0000%00:00 (00:00)
56 Luxor 2 HD May 13, 2013 $9.9935% (72%)20,000 .. 50,0000%00:00 (00:00)
57 Hotel Dash Suite Success May 6, 2010 $6.99N/A (N/A)0 .. 20,0000%00:00 (00:00)
58 Need for Speed: Shift Oct 6, 2009 $19.9935% (72%/83%)200,000 .. 500,0001.47%00:12 (00:06)
59 OMSI 2: Steam Edition Dec 11, 2013 $34.9934% (71%)100,000 .. 200,00016.67%13:12 (15:28)
60 Football Mogul 2014 May 28, 2015 $4.99N/A (N/A)0 .. 20,0000%00:00 (00:00)
61 Splendor Sep 17, 2015 $9.9934% (71%)0 .. 20,0000%00:00 (00:00)
62 Chronicle Keepers: The Dreaming Garden Jun 11, 2015 $4.9932% (70%)0 .. 20,0000%00:00 (00:00)
63 IL-2 Sturmovik: Battle of Stalingrad Oct 22, 2014 $49.9932% (70%/74%)50,000 .. 100,00014.29%19:10 (12:46)
64 StuntMANIA Reloaded Nov 13, 2014 $1.6932% (70%)20,000 .. 50,0000%00:00 (00:00)
65 Midnight Mysteries: Salem Witch Trials Mar 28, 2012 $9.9931% (69%)0 .. 20,0000%00:00 (00:00)
66 Flora's Fruit Farm Oct 1, 2009 $3.9931% (69%)20,000 .. 50,0000%00:00 (00:00)
67 Scrabble Jun 10, 2013 $9.99N/A (N/A)0 .. 20,0000%00:00 (00:00)
68 Diner Mania Jun 25, 2015 $3.9929% (68%)0 .. 20,0000%00:00 (00:00)
69 Mini Motor Racing EVO May 1, 2013 $4.9929% (68%)50,000 .. 100,0000%00:00 (00:00)
70 Little Farm Jun 10, 2008 $9.9929% (68%)20,000 .. 50,0000%00:00 (00:00)
71 MiniDrivers Aug 20, 2015 $5.9929% (68%)20,000 .. 50,0000%00:00 (00:00)
72 THE GAME OF LIFE Nov 3, 2015 $4.9929% (68%)20,000 .. 50,0007.69%00:56 (00:18)
73 Big Thinkers Kindergarten Aug 18, 2015 $6.99N/A (N/A)0 .. 20,0000%00:00 (00:00)
74 Chocolatier: Decadence by Design Aug 12, 2009 $9.9928% (67%)0 .. 20,0000%00:00 (00:00)
75 Luxor Jun 10, 2008 $9.99N/A (N/A)0 .. 20,00016.67%12:41 (04:13)
76 Twisted Lands Trilogy: Collector's Edition Oct 28, 2015 $19.9926% (66%)0 .. 20,0000%00:00 (00:00)
77 The UnderGarden Nov 10, 2010 $6.9925% (65%/67%)20,000 .. 50,0000%00:00 (00:00)
78 Zooloretto Apr 3, 2014 $2.99N/A (N/A)0 .. 20,0000%00:00 (00:00)
79 IGT Slots Paradise Garden Sep 17, 2014 $19.9924% (64%)20,000 .. 50,0000%00:00 (00:00)
80 Mahjong Pretty Girls Battle : School Girls Edition Jun 22, 2015 $14.9924% (64%)20,000 .. 50,0002.41%02:03 (00:57)
81 Pro Cycling Manager 2014 Jun 19, 2014 $9.9924% (64%)20,000 .. 50,0000%00:00 (00:00)
82 City Life 2008 Sep 29, 2008 $9.9922% (63%)20,000 .. 50,0000%00:00 (00:00)
83 Bridge It + Nov 18, 2013 $6.9922% (63%)20,000 .. 50,0000%00:00 (00:00)
84 Battleship Jun 10, 2013 $9.99N/A (N/A)0 .. 20,0000%00:00 (00:00)
85 Railroad Pioneer Jul 1, 2014 $4.9921% (62%/50%)0 .. 20,0000%00:00 (00:00)
86 Zoo Park Jun 13, 2014 $4.9919% (60%)50,000 .. 100,0000%00:00 (00:00)
87 Hacker Evolution: Untold Sep 14, 2010 $4.9918% (59%)100,000 .. 200,0000%00:00 (00:00)
88 DinerTown Tycoon Sep 30, 2009 $9.99N/A (N/A)0 .. 20,0000%00:00 (00:00)
89 Mystery Masters: Psycho Train Deluxe Edition Feb 3, 2015 $9.9915% (56%)20,000 .. 50,0002.1%00:51 (00:41)
90 Luxor: Quest for the Afterlife Dec 15, 2008 $9.99N/A (N/A)20,000 .. 50,0000%00:00 (00:00)
91 Fireburst Apr 25, 2012 $9.9915% (56%/59%)20,000 .. 50,0000%00:00 (00:00)
92 Telltale Texas Hold ‘Em Jun 17, 2008 $2.9915% (55%)100,000 .. 200,0000.61%00:01 (00:00)
93 Cities XL Platinum Feb 6, 2013 $9.9915% (55%)200,000 .. 500,0000.79%03:22 (02:14)
94 Disney•Pixar Toy Story Mania! Oct 6, 2014 $19.99N/A (N/A)0 .. 20,0000%00:00 (00:00)
95 Pacific Storm Allies Aug 18, 2008 $7.9913% (53%/60%)50,000 .. 100,0001.64%03:04 (01:01)
96 My Best Friends - Cats & Dogs Mar 27, 2014 $9.99N/A (N/A)0 .. 20,0000%00:00 (00:00)
97 Panzer Elite Action Gold Edition May 16, 2014 $9.9912% (51%)20,000 .. 50,0000%00:00 (00:00)
98 Speed Kills May 16, 2014 $1.2912% (51%)200,000 .. 500,0000.23%00:01 (00:00)
99 Shadows: Price For Our Sins Bonus Edition Oct 24, 2013 $9.9911% (50%)50,000 .. 100,0000%00:00 (00:00)
100 MotoGP14 Jun 20, 2014 $19.9911% (50%/76%)20,000 .. 50,0000%00:00 (00:00)
101 Pure Pool Jul 31, 2014 $9.9910% (49%/68%)0 .. 20,0000%00:00 (00:00)
102 300 Dwarves Jun 5, 2014 $6.9910% (48%)0 .. 20,0000%00:00 (00:00)
103 Luxor 2 Jun 10, 2008 $9.99N/A (N/A)0 .. 20,0000%00:00 (00:00)
104 Lords of Football Apr 5, 2013 $14.999% (46%/52%)20,000 .. 50,0000%00:00 (00:00)
105 Transport Giant Sep 5, 2014 $9.998% (45%)100,000 .. 200,0000%00:00 (00:00)
106 Truck Mechanic Simulator 2015 May 1, 2015 $9.997% (43%)20,000 .. 50,0000%00:00 (00:00)
107 Comic Book Hero: The Greatest Cape Dec 9, 2015 $19.997% (43%)0 .. 20,0000%00:00 (00:00)
108 Racer 8 Jun 6, 2014 $4.997% (43%)200,000 .. 500,0000.14%00:05 (00:01)
109 Smugglers 5: Invasion Oct 16, 2014 $9.99N/A (N/A)20,000 .. 50,0000%00:00 (00:00)
110 Ship Simulator: Maritime Search and Rescue Jul 1, 2014 $17.997% (42%)20,000 .. 50,0000%00:00 (00:00)
111 M.U.D. TV Apr 19, 2010 $9.996% (40%/53%)20,000 .. 50,0000%00:00 (00:00)
112 Echelon Jul 3, 2014 $3.996% (39%/70%)0 .. 20,0000%00:00 (00:00)
113 Spakoyno: Back to the USSR 2.0 Feb 15, 2016 $0.796% (39%)200,000 .. 500,0000%00:00 (00:00)
114 Airport Firefighters - The Simulation May 13, 2015 $14.995% (35%)20,000 .. 50,0000%00:00 (00:00)
115 Age of Booty Mar 9, 2009 N/A5% (35%)20,000 .. 50,0000%00:00 (00:00)
116 Diner Dash: Hometown Hero Aug 12, 2009 $9.994% (34%)0 .. 20,0000%00:00 (00:00)
117 Autobahn Police Simulator Aug 26, 2015 $9.994% (32%)20,000 .. 50,0000%00:00 (00:00)
118 Tetris Ultimate Dec 10, 2015 $14.993% (31%)0 .. 20,0000%00:00 (00:00)
119 Industry Empire Jul 30, 2014 $19.993% (31%)20,000 .. 50,0000%00:00 (00:00)
120 Cities XXL Feb 5, 2015 $9.993% (28%/47%)100,000 .. 200,0003.03%00:15 (00:05)
121 Air Conflicts: Vietnam Oct 2, 2013 $14.993% (28%/43%)20,000 .. 50,0000%00:00 (00:00)
122 Starlight Inception™ Apr 22, 2014 $9.992% (21%)0 .. 20,0000%00:00 (00:00)
123 Driving School Simulator Sep 25, 2014 $14.992% (21%)0 .. 20,0000%00:00 (00:00)
124 Switch Galaxy Ultra Nov 20, 2015 $9.991% (17%)20,000 .. 50,0000%00:00 (00:00)
125 Airline Tycoon 2 Oct 24, 2011 $9.991% (16%/57%)50,000 .. 100,0000%00:00 (00:00)
126 Adventure Park Nov 8, 2013 $19.991% (9%/49%)0 .. 20,0000%00:00 (00:00)
127 The Flying Dutchman Sep 12, 2014 $4.991% (3%)0 .. 20,0000%00:00 (00:00)
128 Luxor Amun Rising Jun 10, 2008 $9.99N/A (N/A)0 .. 20,00016.67%04:22 (01:27)
129 My Pet Hotel 2 Mar 27, 2014 $9.99N/A (N/A)0 .. 20,0000%00:00 (00:00)
130 Adventures of Robinson Crusoe Jan 9, 2015 $9.99N/A (N/A)20,000 .. 50,0000%00:00 (00:00)
131 Them - The Summoning May 16, 2014 $4.99N/A (N/A)0 .. 20,0000%00:00 (00:00)
132 Discovery! A Seek and Find Adventure Jul 29, 2008 $9.99N/A (N/A)0 .. 20,0000%00:00 (00:00)
133 Chainz 2: Relinked Jul 13, 2009 $9.99N/A (N/A)0 .. 20,0000%00:00 (00:00)
134 Hot Dish Jul 29, 2008 $9.99N/A (N/A)20,000 .. 50,0000%00:00 (00:00)
135 Farm Frenzy 3 Feb 15, 2010 $9.99N/A (N/A)0 .. 20,0000%00:00 (00:00)
136 Sudokuball Detective May 15, 2014 $2.99N/A (N/A)0 .. 20,0000%00:00 (00:00)
137 Dr. Daisy Pet Vet Jul 29, 2008 $9.99N/A (N/A)0 .. 20,0000%00:00 (00:00)

Owners of this game also own:

Access restricted.

This feature is only available to users with special access rights. Sorry.

If you want to proceed, you need to register or log in first and then back Steam Spy on Patreon. Look for Indie or Pro pledge.

Don't forget to use the same email as on Steam Spy!

Playtime distribution:

Access restricted.

This feature is only available to users with special access rights. Sorry.

If you want to proceed, you need to register or log in first and then back Steam Spy on Patreon. Look for Indie or Pro pledge.

Don't forget to use the same email as on Steam Spy!

Playtime (2 weeks):

Access restricted.

This feature is only available to users with special access rights. Sorry.

If you want to proceed, you need to register or log in first and then back Steam Spy on Patreon. Look for Indie or Pro pledge.

Don't forget to use the same email as on Steam Spy!

User reviews:

Login required.

Please register or log in to see this information.